createdAt,value
2018-10-11T00:00:55.989Z,85.40
2018-10-11T00:03:24.453Z,85.40
2018-10-11T00:05:52.965Z,85.30
2018-10-11T00:08:21.421Z,85.20
2018-10-11T00:10:49.850Z,85.40
2018-10-11T00:13:18.350Z,85.30
2018-10-11T00:15:46.796Z,85.60
2018-10-11T00:18:15.254Z,85.50
2018-10-11T00:20:43.691Z,85.50
2018-10-11T00:23:12.122Z,85.50
2018-10-11T00:25:40.568Z,85.60
2018-10-11T00:28:09.016Z,85.70
2018-10-11T00:30:37.493Z,86.60
2018-10-11T00:33:06.069Z,86.10
2018-10-11T00:35:34.502Z,86.20
2018-10-11T00:38:02.966Z,86.10
2018-10-11T00:40:31.417Z,86.60
2018-10-11T00:42:59.869Z,86.80
2018-10-11T00:45:28.304Z,87.00
2018-10-11T00:47:56.752Z,87.00
2018-10-11T00:50:25.209Z,87.00
2018-10-11T00:52:53.650Z,87.10
2018-10-11T00:55:22.201Z,87.20
2018-10-11T00:57:50.647Z,87.40
2018-10-11T01:00:19.168Z,87.30
2018-10-11T01:02:47.601Z,87.20
2018-10-11T01:05:16.062Z,87.50
2018-10-11T01:07:44.505Z,87.70
2018-10-11T01:10:12.961Z,88.00
2018-10-11T01:12:41.413Z,87.50
2018-10-11T01:15:09.861Z,87.70
2018-10-11T01:17:38.318Z,88.20
2018-10-11T01:20:06.793Z,88.00
2018-10-11T01:22:35.249Z,88.10
2018-10-11T01:25:03.708Z,88.10
2018-10-11T01:27:32.189Z,88.20
2018-10-11T01:30:00.648Z,88.40
2018-10-11T01:32:29.155Z,88.30
2018-10-11T01:34:57.652Z,88.30
2018-10-11T01:37:26.768Z,88.40
2018-10-11T01:39:55.302Z,88.60
2018-10-11T01:42:23.737Z,88.60
2018-10-11T01:44:52.213Z,88.50
2018-10-11T01:47:20.685Z,88.50
2018-10-11T01:49:49.153Z,88.60
2018-10-11T01:52:17.614Z,88.70
2018-10-11T01:54:49.384Z,88.70
2018-10-11T01:57:17.857Z,89.00
2018-10-11T01:59:46.303Z,88.90
2018-10-11T02:02:14.756Z,88.90
2018-10-11T02:04:43.208Z,88.90
2018-10-11T02:07:11.712Z,88.90
2018-10-11T02:09:40.300Z,88.90
2018-10-11T02:12:09.766Z,88.80
2018-10-11T02:14:38.210Z,88.60
2018-10-11T02:17:06.777Z,88.60
2018-10-11T02:19:35.329Z,88.70
2018-10-11T02:22:03.804Z,88.90
2018-10-11T02:24:32.250Z,88.80
2018-10-11T02:27:00.689Z,88.80
2018-10-11T02:29:29.164Z,89.00
2018-10-11T02:31:57.688Z,89.20
2018-10-11T02:34:26.499Z,90.00
2018-10-11T02:36:54.932Z,89.30
2018-10-11T02:39:23.383Z,89.40
2018-10-11T02:41:51.832Z,89.20
2018-10-11T02:44:20.284Z,89.10
2018-10-11T02:46:48.733Z,89.20
2018-10-11T02:49:17.248Z,89.30
2018-10-11T02:51:45.702Z,89.30
2018-10-11T02:54:14.165Z,89.20
2018-10-11T02:56:42.746Z,89.00
2018-10-11T02:59:48.421Z,88.90
2018-10-11T03:02:16.984Z,88.90
2018-10-11T03:04:47.241Z,88.80
2018-10-11T03:07:16.872Z,88.80
2018-10-11T03:09:45.392Z,88.80
2018-10-11T03:12:13.877Z,88.70
2018-10-11T03:14:42.346Z,88.70
2018-10-11T03:17:11.187Z,88.70
2018-10-11T03:19:40.103Z,88.60
2018-10-11T03:22:09.037Z,88.70
2018-10-11T03:24:37.481Z,88.70
2018-10-11T03:27:05.977Z,88.70
2018-10-11T03:29:34.413Z,88.80
2018-10-11T03:32:02.969Z,89.10
2018-10-11T03:34:31.441Z,89.20
2018-10-11T03:37:00.139Z,89.20
2018-10-11T03:39:29.648Z,89.10
2018-10-11T03:41:59.083Z,89.20
2018-10-11T03:44:28.069Z,89.40
2018-10-11T03:46:56.769Z,89.40
2018-10-11T03:49:25.646Z,89.30
2018-10-11T03:51:54.108Z,89.50
2018-10-11T03:54:22.966Z,89.50
2018-10-11T03:56:51.507Z,89.60
2018-10-11T03:59:21.322Z,89.60
2018-10-11T04:01:50.411Z,90.00
2018-10-11T04:04:20.284Z,90.00
2018-10-11T04:06:48.790Z,90.00
2018-10-11T04:09:17.302Z,90.00
2018-10-11T04:11:45.855Z,89.80
2018-10-11T04:14:14.356Z,90.00
2018-10-11T04:16:42.871Z,90.00
2018-10-11T04:19:11.591Z,90.30
2018-10-11T04:21:40.172Z,90.40
2018-10-11T04:24:10.261Z,90.80
2018-10-11T04:26:40.520Z,90.30
2018-10-11T04:29:09.067Z,90.30
2018-10-11T04:31:38.362Z,90.40
2018-10-11T04:34:09.196Z,90.40
2018-10-11T04:37:08.006Z,90.30
2018-10-11T04:39:37.730Z,90.20
2018-10-11T04:42:07.132Z,90.10
2018-10-11T04:44:36.706Z,90.10
2018-10-11T04:47:06.500Z,90.10
2018-10-11T04:49:36.367Z,90.10
2018-10-11T04:52:04.904Z,90.00
2018-10-11T04:54:33.899Z,90.00
2018-10-11T04:57:02.403Z,90.10
2018-10-11T04:59:30.948Z,90.50
2018-10-11T05:01:59.521Z,90.20
2018-10-11T05:04:28.852Z,90.10
2018-10-11T05:06:57.314Z,90.00
2018-10-11T05:09:25.806Z,90.00
2018-10-11T05:11:54.650Z,90.10
2018-10-11T05:14:23.237Z,90.10
2018-10-11T05:16:51.899Z,90.30
2018-10-11T05:19:20.870Z,90.30
2018-10-11T05:21:50.060Z,90.10
2018-10-11T05:24:18.922Z,90.10
2018-10-11T05:26:47.470Z,90.40
2018-10-11T05:29:15.938Z,90.10
2018-10-11T05:31:45.741Z,90.10
2018-10-11T05:34:14.267Z,90.10
2018-10-11T05:36:43.214Z,90.10
2018-10-11T05:39:11.777Z,90.10
2018-10-11T05:41:40.336Z,90.30
2018-10-11T05:44:09.115Z,90.30
2018-10-11T05:46:37.696Z,90.40
2018-10-11T05:49:07.091Z,90.30
2018-10-11T05:51:36.123Z,90.30
2018-10-11T05:54:05.136Z,90.30
2018-10-11T05:56:36.060Z,90.30
2018-10-11T05:59:05.642Z,90.20
2018-10-11T06:01:34.357Z,90.20
2018-10-11T06:04:04.455Z,90.20
2018-10-11T06:06:33.144Z,90.10
2018-10-11T06:09:01.844Z,90.10
2018-10-11T06:11:30.488Z,90.10
2018-10-11T06:13:59.332Z,90.10
2018-10-11T06:16:28.599Z,90.20
2018-10-11T06:18:57.213Z,90.30
2018-10-11T06:21:26.552Z,90.20
2018-10-11T06:23:55.234Z,90.20
2018-10-11T06:26:23.688Z,90.30
2018-10-11T06:28:52.204Z,90.40
2018-10-11T06:31:20.770Z,90.40
2018-10-11T06:33:49.304Z,90.40
2018-10-11T06:36:17.875Z,90.50
2018-10-11T06:38:46.377Z,90.50
2018-10-11T06:41:15.089Z,90.50
2018-10-11T06:43:43.643Z,90.40
2018-10-11T06:46:12.776Z,90.40
2018-10-11T06:48:41.249Z,90.50
2018-10-11T06:51:09.788Z,90.60
2018-10-11T06:53:38.446Z,90.60
2018-10-11T06:56:06.988Z,90.70
2018-10-11T06:58:35.365Z,90.70
2018-10-11T07:01:03.864Z,90.80
2018-10-11T07:03:32.301Z,90.80
2018-10-11T07:06:00.730Z,90.80
2018-10-11T07:08:29.156Z,90.80
2018-10-11T07:10:57.602Z,90.90
2018-10-11T07:13:26.052Z,91.00
2018-10-11T07:15:54.479Z,91.00
2018-10-11T07:18:22.916Z,91.10
2018-10-11T07:20:51.352Z,91.00
2018-10-11T07:23:19.781Z,91.00
2018-10-11T07:25:48.220Z,91.00
2018-10-11T07:28:16.667Z,90.90
2018-10-11T07:30:45.120Z,90.70
2018-10-11T07:33:13.545Z,90.70
2018-10-11T07:35:41.985Z,90.60
2018-10-11T07:38:10.590Z,90.50
2018-10-11T07:40:39.118Z,90.40
2018-10-11T07:43:07.460Z,90.40
2018-10-11T07:45:35.906Z,90.40
2018-10-11T07:48:04.360Z,90.30
2018-10-11T07:50:32.805Z,90.30
2018-10-11T07:53:01.302Z,90.20
2018-10-11T07:55:29.729Z,90.20
2018-10-11T07:57:58.172Z,90.20
2018-10-11T08:00:26.614Z,90.10
2018-10-11T08:02:55.130Z,90.00
2018-10-11T08:05:23.706Z,90.10
2018-10-11T08:07:52.193Z,89.90
2018-10-11T08:10:20.854Z,89.80
2018-10-11T08:12:49.365Z,89.70
2018-10-11T08:15:18.246Z,89.40
2018-10-11T08:17:47.037Z,89.80
2018-10-11T08:20:15.652Z,89.00
2018-10-11T08:22:44.073Z,88.20
2018-10-11T08:25:12.696Z,87.60
2018-10-11T08:27:41.413Z,87.10
2018-10-11T08:30:09.870Z,86.90
2018-10-11T08:32:38.959Z,87.30
2018-10-11T08:35:07.479Z,86.90
2018-10-11T08:37:37.073Z,86.20
2018-10-11T08:40:06.460Z,85.60
2018-10-11T08:42:35.581Z,85.10
2018-10-11T08:45:04.550Z,84.80
2018-10-11T08:47:33.574Z,84.40
2018-10-11T08:50:02.586Z,84.70
2018-10-11T08:52:31.725Z,84.60
2018-10-11T08:55:00.796Z,84.60
2018-10-11T08:57:30.797Z,84.00
2018-10-11T09:00:12.307Z,83.50
2018-10-11T09:02:41.096Z,82.80
2018-10-11T09:05:10.569Z,82.70
2018-10-11T09:07:39.366Z,83.10
2018-10-11T09:10:08.402Z,82.10
2018-10-11T09:12:37.866Z,82.40
2018-10-11T09:15:07.311Z,82.40
2018-10-11T09:17:36.162Z,81.40
2018-10-11T09:20:05.127Z,81.60
2018-10-11T09:22:35.494Z,81.90
2018-10-11T09:25:04.490Z,81.90
2018-10-11T09:27:33.987Z,81.10
2018-10-11T09:30:03.143Z,80.40
2018-10-11T09:32:32.273Z,80.50
2018-10-11T09:35:01.647Z,79.70
2018-10-11T09:37:31.037Z,79.70
2018-10-11T09:41:24.738Z,79.00
2018-10-11T09:43:54.448Z,78.30
2018-10-11T09:49:31.670Z,77.70
2018-10-11T09:52:01.036Z,75.40
2018-10-11T09:54:29.782Z,75.20
2018-10-11T09:57:12.652Z,74.90
2018-10-11T09:59:42.003Z,75.20
2018-10-11T10:02:31.714Z,75.60
2018-10-11T10:05:03.357Z,74.70
2018-10-11T10:07:32.376Z,73.90
2018-10-11T10:10:01.198Z,71.20
2018-10-11T10:12:30.233Z,71.20
2018-10-11T10:14:59.396Z,70.80
2018-10-11T10:17:38.815Z,70.80
2018-10-11T10:20:07.891Z,70.10
2018-10-11T10:22:36.545Z,70.90
2018-10-11T10:25:05.138Z,70.30
2018-10-11T10:27:34.230Z,70.30
2018-10-11T10:30:08.307Z,69.40
2018-10-11T10:32:37.202Z,69.40
2018-10-11T10:35:06.313Z,69.60
2018-10-11T10:37:34.996Z,68.00
2018-10-11T10:40:04.567Z,68.70
2018-10-11T10:42:34.838Z,68.10
2018-10-11T10:45:03.744Z,68.60
2018-10-11T10:47:32.740Z,67.80
2018-10-11T10:50:01.750Z,67.70
2018-10-11T10:52:30.545Z,67.00
2018-10-11T10:54:59.473Z,66.50
2018-10-11T10:57:28.451Z,66.60
2018-10-11T10:59:58.358Z,67.40
2018-10-11T11:02:27.097Z,66.50
2018-10-11T11:04:56.077Z,65.90
2018-10-11T11:07:24.712Z,65.70
2018-10-11T11:09:53.535Z,64.80
2018-10-11T11:12:22.345Z,65.40
2018-10-11T11:14:51.282Z,64.90
2018-10-11T11:17:20.215Z,63.80
2018-10-11T11:19:49.873Z,64.60
2018-10-11T11:22:18.577Z,63.80
2018-10-11T11:24:48.461Z,63.80
2018-10-11T11:27:17.356Z,63.70
2018-10-11T11:29:46.184Z,63.50
2018-10-11T11:32:16.528Z,62.90
2018-10-11T11:34:45.845Z,62.80
2018-10-11T11:37:14.404Z,63.30
2018-10-11T11:39:43.208Z,63.00
2018-10-11T11:47:02.362Z,62.20
2018-10-11T11:49:31.068Z,60.80
2018-10-11T11:52:00.339Z,60.50
2018-10-11T11:54:29.483Z,61.30
2018-10-11T11:56:58.129Z,62.10
2018-10-11T11:59:27.581Z,61.90
2018-10-11T12:01:56.633Z,61.30
2018-10-11T12:04:25.600Z,61.50
2018-10-11T12:06:54.610Z,61.90
2018-10-11T12:09:24.228Z,61.90
2018-10-11T12:11:53.418Z,60.30
2018-10-11T12:14:22.289Z,60.50
2018-10-11T12:16:51.157Z,60.40
2018-10-11T12:19:20.053Z,60.00
2018-10-11T12:21:48.504Z,59.80
2018-10-11T12:24:17.592Z,59.20
2018-10-11T12:26:46.079Z,59.30
2018-10-11T12:29:14.533Z,59.40
2018-10-11T12:31:42.989Z,59.30
2018-10-11T12:34:11.789Z,59.30
2018-10-11T12:36:40.221Z,58.90
2018-10-11T12:39:09.408Z,58.30
2018-10-11T12:41:37.900Z,57.60
2018-10-11T12:44:06.599Z,58.20
2018-10-11T12:46:35.371Z,58.80
2018-10-11T12:49:03.529Z,58.60
2018-10-11T12:51:31.985Z,58.10
2018-10-11T12:54:00.509Z,57.90
2018-10-11T12:56:29.024Z,58.40
2018-10-11T12:58:57.399Z,58.00
2018-10-11T13:01:25.839Z,58.00
2018-10-11T13:03:54.280Z,57.90
2018-10-11T13:06:22.738Z,58.00
2018-10-11T13:08:51.203Z,57.80
2018-10-11T13:11:19.662Z,57.00
2018-10-11T13:13:51.172Z,57.40
2018-10-11T13:16:17.322Z,56.60
2018-10-11T13:18:45.756Z,56.50
2018-10-11T13:21:14.216Z,56.80
2018-10-11T13:23:42.665Z,56.70
2018-10-11T13:26:11.113Z,56.00
2018-10-11T13:28:39.624Z,55.90
2018-10-11T13:31:08.028Z,55.70
2018-10-11T13:33:36.472Z,56.00
2018-10-11T13:36:04.925Z,56.10
2018-10-11T13:38:33.399Z,56.20
2018-10-11T13:41:03.703Z,57.00
2018-10-11T13:43:30.739Z,56.40
2018-10-11T13:46:01.975Z,56.50
2018-10-11T13:48:27.648Z,56.20
2018-10-11T13:50:56.082Z,56.20
2018-10-11T13:53:24.798Z,56.20
2018-10-11T13:55:57.685Z,56.60
2018-10-11T13:58:22.629Z,56.60
2018-10-11T14:00:51.085Z,56.40
2018-10-11T14:03:19.548Z,56.00
2018-10-11T14:05:48.522Z,56.10
2018-10-11T14:08:17.909Z,56.30
2018-10-11T14:10:46.456Z,56.50
2018-10-11T14:13:16.433Z,56.70
2018-10-11T14:15:43.274Z,56.80
2018-10-11T14:18:12.770Z,56.70
2018-10-11T14:20:40.523Z,56.30
2018-10-11T14:23:09.025Z,56.50
2018-10-11T14:25:37.474Z,56.60
2018-10-11T14:28:06.284Z,56.50
2018-10-11T14:30:34.752Z,56.60
2018-10-11T14:33:03.228Z,56.40
2018-10-11T14:35:31.667Z,56.20
2018-10-11T14:38:00.196Z,55.80
2018-10-11T14:40:28.721Z,55.50
2018-10-11T14:42:57.196Z,55.50
2018-10-11T14:45:25.676Z,56.20
2018-10-11T14:47:54.225Z,56.20
2018-10-11T14:50:22.706Z,55.80
2018-10-11T14:52:51.143Z,56.10
2018-10-11T14:55:19.664Z,56.40
2018-10-11T14:57:48.150Z,56.30
2018-10-11T15:00:16.602Z,56.40
2018-10-11T15:02:45.092Z,56.70
2018-10-11T15:05:13.565Z,56.40
2018-10-11T15:07:42.008Z,56.30
2018-10-11T15:10:10.485Z,56.50
2018-10-11T15:12:38.941Z,56.70
2018-10-11T15:15:07.536Z,56.70
2018-10-11T15:17:35.979Z,57.00
2018-10-11T15:20:04.557Z,56.70
2018-10-11T15:22:33.213Z,57.00
2018-10-11T15:25:01.724Z,57.10
2018-10-11T15:27:30.238Z,57.00
2018-10-11T15:29:58.778Z,56.80
2018-10-11T15:32:27.284Z,56.90
2018-10-11T15:34:55.856Z,57.30
2018-10-11T15:37:24.440Z,57.60
2018-10-11T15:39:52.989Z,57.90
2018-10-11T15:42:21.499Z,58.20
2018-10-11T15:44:50.105Z,58.20
2018-10-11T15:47:18.704Z,57.90
2018-10-11T15:49:47.333Z,58.20
2018-10-11T15:52:16.069Z,58.50
2018-10-11T15:54:44.617Z,58.60
2018-10-11T15:57:13.224Z,58.70
2018-10-11T15:59:42.027Z,59.10
2018-10-11T16:02:10.728Z,59.40
2018-10-11T16:04:39.265Z,59.60
2018-10-11T16:07:07.875Z,59.60
2018-10-11T16:09:36.564Z,59.70
2018-10-11T16:12:05.282Z,59.90
2018-10-11T16:14:33.796Z,60.00
2018-10-11T16:17:02.432Z,60.00
2018-10-11T16:19:31.257Z,60.20
2018-10-11T16:21:59.785Z,60.40
2018-10-11T16:24:29.298Z,60.70
2018-10-11T16:26:57.962Z,60.90
2018-10-11T16:29:26.586Z,61.20
2018-10-11T16:31:55.162Z,61.80
2018-10-11T16:34:23.694Z,62.20
2018-10-11T16:36:52.189Z,62.40
2018-10-11T16:39:20.677Z,62.60
2018-10-11T16:41:49.186Z,63.10
2018-10-11T16:44:17.681Z,63.30
2018-10-11T16:46:46.609Z,63.50
2018-10-11T16:49:15.157Z,63.80
2018-10-11T16:51:44.148Z,63.70
2018-10-11T16:54:12.674Z,63.90
2018-10-11T16:56:43.415Z,64.90
2018-10-11T16:59:11.976Z,64.30
2018-10-11T17:01:43.505Z,64.60
2018-10-11T17:04:12.503Z,64.70
2018-10-11T17:06:40.958Z,64.80
2018-10-11T17:09:10.700Z,64.90
2018-10-11T17:11:39.374Z,65.00
2018-10-11T17:14:07.968Z,65.70
2018-10-11T17:16:36.560Z,65.80
2018-10-11T17:19:07.067Z,65.80
2018-10-11T17:21:36.085Z,65.80
2018-10-11T17:24:04.889Z,66.10
2018-10-11T17:26:34.122Z,66.10
2018-10-11T17:29:02.644Z,66.30
2018-10-11T17:31:31.192Z,66.30
2018-10-11T17:34:00.150Z,66.60
2018-10-11T17:36:28.626Z,66.80
2018-10-11T17:39:14.824Z,67.20
2018-10-11T17:41:44.250Z,68.20
2018-10-11T17:44:40.360Z,67.70
2018-10-11T17:49:48.506Z,67.90
2018-10-11T17:52:18.422Z,68.10
2018-10-11T17:54:51.901Z,68.20
2018-10-11T17:57:20.872Z,68.40
2018-10-11T17:59:50.405Z,68.60
2018-10-11T18:02:19.964Z,68.50
2018-10-11T18:04:48.496Z,68.50
2018-10-11T18:07:16.976Z,69.40
2018-10-11T18:09:45.481Z,68.80
2018-10-11T18:12:13.968Z,68.90
2018-10-11T18:14:42.434Z,69.00
2018-10-11T18:17:11.153Z,69.10
2018-10-11T18:19:39.639Z,69.00
2018-10-11T18:22:08.140Z,69.00
2018-10-11T18:24:36.631Z,69.20
2018-10-11T18:27:05.134Z,69.20
2018-10-11T18:29:33.989Z,69.20
2018-10-11T18:32:02.482Z,69.50
2018-10-11T18:34:31.397Z,70.50
2018-10-11T18:36:59.864Z,70.00
2018-10-11T18:39:28.380Z,70.10
2018-10-11T18:41:56.867Z,70.00
2018-10-11T18:44:25.319Z,70.10
2018-10-11T18:46:53.791Z,70.10
2018-10-11T18:49:22.309Z,70.30
2018-10-11T18:51:50.778Z,70.50
2018-10-11T18:54:19.236Z,70.70
2018-10-11T18:56:47.705Z,70.80
2018-10-11T18:59:16.201Z,71.10
2018-10-11T19:01:44.686Z,71.10
2018-10-11T19:04:13.137Z,71.10
2018-10-11T19:06:41.593Z,71.30
2018-10-11T19:09:10.094Z,71.40
2018-10-11T19:11:38.890Z,71.60
2018-10-11T19:14:07.454Z,71.70
2018-10-11T19:16:36.029Z,71.90
2018-10-11T19:19:04.519Z,72.00
2018-10-11T19:21:32.966Z,72.10
2018-10-11T19:24:01.442Z,72.40
2018-10-11T19:26:29.947Z,72.30
2018-10-11T19:28:58.439Z,72.50
2018-10-11T19:31:26.926Z,72.70
2018-10-11T19:33:55.807Z,72.70
2018-10-11T19:36:24.292Z,72.80
2018-10-11T19:38:52.811Z,72.90
2018-10-11T19:41:21.412Z,73.70
2018-10-11T19:43:49.873Z,73.00
2018-10-11T19:46:18.377Z,73.10
2018-10-11T19:48:46.959Z,73.10
2018-10-11T19:51:15.429Z,73.10
2018-10-11T19:55:08.071Z,73.10
2018-10-11T19:57:37.056Z,73.30
2018-10-11T20:00:05.926Z,73.30
2018-10-11T20:02:34.506Z,73.30
2018-10-11T20:05:02.975Z,73.40
2018-10-11T20:07:31.486Z,73.50
2018-10-11T20:10:00.022Z,73.70
2018-10-11T20:12:29.502Z,73.90
2018-10-11T20:14:58.006Z,73.90
2018-10-11T20:17:26.633Z,73.20
2018-10-11T20:19:55.512Z,74.00
2018-10-11T20:22:23.965Z,74.00
2018-10-11T20:24:52.482Z,74.00
2018-10-11T20:27:20.973Z,74.00
2018-10-11T20:29:49.453Z,74.00
2018-10-11T20:32:17.911Z,74.10
2018-10-11T20:34:46.718Z,74.20
2018-10-11T20:37:15.228Z,74.20
2018-10-11T20:39:43.706Z,74.70
2018-10-11T20:42:12.182Z,74.80
2018-10-11T20:44:41.008Z,75.00
2018-10-11T20:47:09.550Z,75.10
2018-10-11T20:49:38.140Z,75.10
2018-10-11T20:52:06.791Z,75.40
2018-10-11T20:54:35.240Z,75.50
2018-10-11T20:57:03.753Z,75.60
2018-10-11T20:59:32.233Z,75.90
2018-10-11T21:02:00.717Z,75.80
2018-10-11T21:04:29.301Z,76.00
2018-10-11T21:06:58.089Z,76.10
2018-10-11T21:09:26.571Z,76.20
2018-10-11T21:11:55.181Z,76.50
2018-10-11T21:14:23.537Z,76.70
2018-10-11T21:16:51.999Z,76.80
2018-10-11T21:19:20.476Z,77.00
2018-10-11T21:21:48.935Z,77.00
2018-10-11T21:24:17.392Z,77.00
2018-10-11T21:26:45.855Z,77.00
2018-10-11T21:29:14.321Z,77.00
2018-10-11T21:31:42.798Z,77.10
2018-10-11T21:34:11.294Z,77.20
2018-10-11T21:36:39.714Z,77.30
2018-10-11T21:39:10.646Z,77.60
2018-10-11T21:41:39.226Z,77.80
2018-10-11T21:44:07.723Z,77.70
2018-10-11T21:46:36.188Z,77.90
2018-10-11T21:49:04.681Z,78.00
2018-10-11T21:51:33.215Z,78.20
2018-10-11T21:54:01.665Z,78.40
2018-10-11T21:56:30.492Z,78.60
2018-10-11T21:58:58.975Z,78.70
2018-10-11T22:01:27.417Z,78.80
2018-10-11T22:03:55.868Z,78.90
2018-10-11T22:06:24.470Z,78.20
2018-10-11T22:08:52.901Z,79.00
2018-10-11T22:11:21.348Z,79.10
2018-10-11T22:13:49.790Z,79.30
2018-10-11T22:16:18.248Z,79.40
2018-10-11T22:18:46.737Z,79.50
2018-10-11T22:21:15.185Z,79.70
2018-10-11T22:23:44.102Z,79.90
2018-10-11T22:26:12.862Z,79.80
2018-10-11T22:28:41.752Z,80.00
2018-10-11T22:31:13.995Z,80.30
2018-10-11T22:33:43.044Z,80.30
2018-10-11T22:36:13.045Z,80.30
2018-10-11T22:38:42.195Z,80.50
2018-10-11T22:41:11.705Z,80.60
2018-10-11T22:43:40.797Z,80.70
2018-10-11T22:46:10.096Z,80.80
2018-10-11T22:48:38.555Z,80.90
2018-10-11T22:51:07.084Z,80.80
2018-10-11T22:53:35.983Z,80.80
2018-10-11T22:56:04.449Z,81.20
2018-10-11T22:58:32.923Z,81.30
2018-10-11T23:01:01.437Z,81.30
2018-10-11T23:03:30.223Z,81.30
2018-10-11T23:05:58.684Z,81.50
2018-10-11T23:08:27.109Z,81.60
2018-10-11T23:10:57.173Z,81.50
2018-10-11T23:13:25.739Z,81.60
2018-10-11T23:15:54.253Z,81.70
2018-10-11T23:18:23.654Z,81.90
2018-10-11T23:20:52.093Z,82.00
2018-10-11T23:23:20.525Z,82.00
2018-10-11T23:25:48.970Z,82.10
2018-10-11T23:28:17.452Z,82.20
2018-10-11T23:30:45.923Z,82.20
2018-10-11T23:33:14.361Z,82.10
2018-10-11T23:35:42.798Z,82.20
2018-10-11T23:38:11.257Z,82.30
2018-10-11T23:40:40.160Z,82.30
2018-10-11T23:43:08.713Z,82.30
2018-10-11T23:45:37.162Z,82.60
2018-10-11T23:48:05.698Z,82.50
2018-10-11T23:50:34.184Z,82.60
2018-10-11T23:53:02.664Z,82.70
2018-10-11T23:55:32.503Z,82.80
2018-10-11T23:58:02.024Z,82.90
